createdAt,value
2023-03-06T00:15:39.716Z,86
2023-03-06T00:16:52.749Z,86
2023-03-06T00:18:05.623Z,86
2023-03-06T00:35:07.723Z,87
2023-03-06T00:47:17.996Z,87
2023-03-06T00:53:22.690Z,88
2023-03-06T00:55:48.661Z,88
2023-03-06T00:59:28.310Z,88
2023-03-06T01:05:32.830Z,89
2023-03-06T01:07:58.806Z,89
2023-03-06T01:10:24.783Z,89
2023-03-06T01:14:03.738Z,90
2023-03-06T01:15:16.762Z,90
2023-03-06T01:16:29.872Z,89
2023-03-06T01:17:43.160Z,89
2023-03-06T01:18:55.948Z,90
2023-03-06T01:20:08.938Z,90
2023-03-06T01:22:34.920Z,92
2023-03-06T01:23:47.804Z,93
2023-03-06T01:25:00.182Z,94
2023-03-06T01:26:13.959Z,94
2023-03-06T01:27:26.822Z,95
2023-03-06T01:28:40.191Z,95
2023-03-06T01:29:52.854Z,96
2023-03-06T01:31:05.945Z,96
2023-03-06T01:32:18.970Z,96
2023-03-06T01:33:31.955Z,96
2023-03-06T01:34:45.312Z,97
2023-03-06T01:35:57.949Z,97
2023-03-06T01:37:10.948Z,97
2023-03-06T01:38:24.000Z,97
2023-03-06T01:39:37.143Z,98
2023-03-06T01:40:50.110Z,98
2023-03-06T01:43:15.899Z,98
2023-03-06T01:44:28.889Z,99
2023-03-06T01:45:41.924Z,99
2023-03-06T01:46:55.422Z,99
2023-03-06T01:48:07.898Z,99
2023-03-06T01:49:20.805Z,99
2023-03-06T01:50:33.886Z,99
2023-03-06T01:51:46.909Z,99
2023-03-06T01:52:59.630Z,99
2023-03-06T01:54:12.927Z,99
2023-03-06T01:55:25.946Z,99
2023-03-06T01:56:38.923Z,99
2023-03-06T01:57:52.069Z,99
2023-03-06T01:59:04.911Z,99
2023-03-06T02:00:18.060Z,99
2023-03-06T02:01:31.211Z,99
2023-03-06T02:02:43.926Z,99
2023-03-06T02:03:56.914Z,99
2023-03-06T02:05:09.949Z,99
2023-03-06T02:06:22.908Z,99
2023-03-06T02:07:35.897Z,99
2023-03-06T02:08:48.980Z,99
2023-03-06T02:10:01.935Z,99
2023-03-06T02:11:14.969Z,99
2023-03-06T02:12:27.908Z,99
2023-03-06T02:13:40.962Z,99
2023-03-06T02:14:54.108Z,99
2023-03-06T02:16:06.926Z,99
2023-03-06T02:17:19.919Z,99
2023-03-06T02:18:32.920Z,99
2023-03-06T02:19:45.922Z,99
2023-03-06T02:20:58.883Z,99
2023-03-06T02:22:11.938Z,99
2023-03-06T02:23:24.966Z,99
2023-03-06T02:24:37.987Z,99
2023-03-06T02:25:50.929Z,99
2023-03-06T02:27:03.968Z,99
2023-03-06T02:28:16.953Z,99
2023-03-06T02:29:29.962Z,99
2023-03-06T02:30:43.097Z,99
2023-03-06T02:31:55.815Z,99
2023-03-06T02:33:08.932Z,99
2023-03-06T02:34:21.957Z,99
2023-03-06T02:35:34.956Z,99
2023-03-06T02:36:47.931Z,99
2023-03-06T02:38:00.937Z,99
2023-03-06T02:39:14.005Z,99
2023-03-06T02:40:26.823Z,99
2023-03-06T02:41:40.258Z,99
2023-03-06T02:42:53.309Z,99
2023-03-06T02:44:05.944Z,99
2023-03-06T02:45:19.309Z,99
2023-03-06T02:46:31.990Z,99
2023-03-06T02:47:44.970Z,99
2023-03-06T02:48:57.937Z,99
2023-03-06T02:50:10.937Z,99
2023-03-06T02:51:23.936Z,99
2023-03-06T02:52:37.454Z,99
2023-03-06T02:53:50.107Z,99
2023-03-06T02:55:03.102Z,99
2023-03-06T02:56:15.966Z,99
2023-03-06T02:57:29.247Z,99
2023-03-06T02:58:41.831Z,99
2023-03-06T02:59:54.929Z,99
2023-03-06T03:01:08.078Z,99
2023-03-06T03:02:20.827Z,99
2023-03-06T03:03:33.935Z,99
2023-03-06T03:04:46.992Z,99
2023-03-06T03:05:59.821Z,99
2023-03-06T03:07:12.959Z,99
2023-03-06T03:08:25.957Z,99
2023-03-06T03:09:39.294Z,99
2023-03-06T03:10:51.978Z,99
2023-03-06T03:12:04.821Z,99
2023-03-06T03:13:17.925Z,99
2023-03-06T03:14:30.959Z,99
2023-03-06T03:15:44.021Z,99
2023-03-06T03:16:56.969Z,99
2023-03-06T03:18:09.651Z,99
2023-03-06T03:19:22.963Z,99
2023-03-06T03:20:35.966Z,99
2023-03-06T03:21:48.946Z,99
2023-03-06T03:23:01.964Z,99
2023-03-06T03:24:14.969Z,99
2023-03-06T03:25:27.968Z,99
2023-03-06T03:26:40.851Z,99
2023-03-06T03:27:53.970Z,99
2023-03-06T03:29:06.997Z,99
2023-03-06T03:30:20.012Z,99
2023-03-06T03:31:33.005Z,99
2023-03-06T03:32:46.157Z,99
2023-03-06T03:33:58.964Z,99
2023-03-06T03:35:11.983Z,99
2023-03-06T03:36:24.861Z,99
2023-03-06T03:37:38.088Z,99
2023-03-06T03:38:50.845Z,99
2023-03-06T03:40:03.998Z,99
2023-03-06T03:41:16.990Z,99
2023-03-06T03:42:29.963Z,99
2023-03-06T03:43:43.371Z,99
2023-03-06T03:44:55.979Z,99
2023-03-06T03:46:09.046Z,99
2023-03-06T03:47:21.992Z,99
2023-03-06T03:48:35.612Z,99
2023-03-06T03:49:48.126Z,99
2023-03-06T03:51:01.014Z,99
2023-03-06T03:52:14.117Z,99
2023-03-06T03:53:27.504Z,99
2023-03-06T03:54:40.145Z,99
2023-03-06T03:55:52.990Z,99
2023-03-06T03:57:06.002Z,99
2023-03-06T03:58:19.205Z,99
2023-03-06T03:59:32.201Z,99
2023-03-06T04:26:18.473Z,99
2023-03-06T04:27:31.219Z,99
2023-03-06T04:28:44.556Z,99
2023-03-06T04:29:57.516Z,99
2023-03-06T04:31:09.987Z,99
2023-03-06T04:32:22.868Z,99
2023-03-06T04:34:49.033Z,99
2023-03-06T04:36:02.324Z,99
2023-03-06T04:37:14.890Z,99
2023-03-06T04:38:27.754Z,99
2023-03-06T04:42:06.826Z,99
2023-03-06T04:43:19.950Z,99
2023-03-06T04:45:46.280Z,99
2023-03-06T04:48:11.908Z,99
2023-03-06T04:49:25.594Z,99
2023-03-06T04:53:03.829Z,99
2023-03-06T04:54:19.139Z,99
2023-03-06T04:55:29.959Z,99
2023-03-06T04:56:43.474Z,99
2023-03-06T04:57:56.444Z,99
2023-03-06T04:59:08.993Z,99
2023-03-06T05:05:13.873Z,99
2023-03-06T05:06:26.768Z,99
2023-03-06T05:07:40.089Z,99
2023-03-06T05:08:53.066Z,99
2023-03-06T05:11:19.032Z,99
2023-03-06T05:12:32.053Z,99
2023-03-06T05:13:45.324Z,99
2023-03-06T05:14:58.166Z,99
2023-03-06T05:16:10.934Z,99
2023-03-06T05:17:24.001Z,99
2023-03-06T05:19:50.063Z,99
2023-03-06T05:22:16.557Z,99
2023-03-06T05:24:42.038Z,99
2023-03-06T05:27:08.476Z,99
2023-03-06T05:29:33.940Z,99
2023-03-06T05:30:47.040Z,99
2023-03-06T05:32:00.190Z,99
2023-03-06T05:33:13.042Z,99
2023-03-06T05:34:26.041Z,99
2023-03-06T05:35:39.153Z,99
2023-03-06T05:40:31.144Z,99
2023-03-06T05:50:14.822Z,99
2023-03-06T05:53:54.164Z,99
2023-03-06T05:59:59.672Z,99
2023-03-06T06:07:17.051Z,99
2023-03-06T06:08:29.909Z,99
2023-03-06T06:10:55.801Z,99
2023-03-06T06:38:54.803Z,99
2023-03-06T07:15:25.525Z,99
2023-03-06T08:25:58.919Z,99
2023-03-06T08:29:38.564Z,99
2023-03-06T08:45:27.105Z,99
2023-03-06T09:59:40.409Z,99
2023-03-06T10:11:50.045Z,99
2023-03-06T10:21:34.638Z,99
2023-03-06T10:25:13.090Z,99
2023-03-06T11:47:57.474Z,99
2023-03-06T11:49:09.964Z,99
2023-03-06T12:28:06.145Z,99
2023-03-06T12:29:20.409Z,99
2023-03-06T13:11:54.347Z,86
2023-03-06T13:13:07.294Z,86
2023-03-06T13:20:25.245Z,82
2023-03-06T13:28:56.671Z,83
2023-03-06T14:18:49.436Z,77
2023-03-06T14:22:28.197Z,77
2023-03-06T15:29:23.610Z,78
2023-03-06T22:03:35.956Z,81
2023-03-06T22:25:30.099Z,83
2023-03-06T22:57:07.747Z,85
2023-03-06T22:58:20.363Z,85
2023-03-06T23:16:35.652Z,87
2023-03-06T23:17:48.494Z,87
2023-03-06T23:20:14.648Z,87
2023-03-06T23:21:28.103Z,87
2023-03-06T23:22:40.454Z,88
2023-03-06T23:25:06.573Z,88
2023-03-06T23:27:32.540Z,88
2023-03-06T23:29:58.343Z,88
2023-03-06T23:31:11.447Z,89
2023-03-06T23:33:37.425Z,89
2023-03-06T23:34:50.579Z,89
2023-03-06T23:38:29.555Z,90
2023-03-06T23:40:55.578Z,91
2023-03-06T23:43:21.581Z,91
2023-03-06T23:44:34.572Z,92
2023-03-06T23:45:47.565Z,92
2023-03-06T23:47:00.752Z,93
2023-03-06T23:48:13.721Z,93
2023-03-06T23:49:26.587Z,93
2023-03-06T23:50:39.802Z,94
2023-03-06T23:51:52.634Z,94
2023-03-06T23:53:05.607Z,94
2023-03-06T23:54:18.733Z,94
2023-03-06T23:55:31.514Z,94
2023-03-06T23:56:44.609Z,95
2023-03-06T23:57:57.598Z,95
2023-03-06T23:59:10.822Z,95
